Terminal Aerodrome Forecast
Issued by NWS

Home | Current Version | Previous Version | Text Only | Print | Product List | Glossary On
Versions: 1 2 3 4 5 6 7 8 9 10 11 12 13 14 15 16 17 18 19 20 21 22 23 24
870
FTUS43 KLSX 090427 AAD
TAFUIN
TAF AMD
KUIN 090427Z 0904/0924 31015G25KT 5SM -SN BKN025
      TEMPO 0906/0909 2SM -SN BKN015
     FM091100 32017G25KT P6SM OVC025
     FM092300 31018KT P6SM SCT030=

USA.gov is the U.S. government's official web portal to all federal, state and local government web resources and services.